sensor_id;sensor_type;location;lat;lon;timestamp;P1;durP1;ratioP1;P2;durP2;ratioP2
49296;SDS011;35163;48.878;18.040;2022-07-22T00:01:03;15.50;;;6.00;;
49296;SDS011;35163;48.878;18.040;2022-07-22T00:03:30;10.13;;;5.55;;
49296;SDS011;35163;48.878;18.040;2022-07-22T00:05:57;15.32;;;6.53;;
49296;SDS011;35163;48.878;18.040;2022-07-22T00:08:23;9.77;;;5.55;;
49296;SDS011;35163;48.878;18.040;2022-07-22T00:10:50;10.68;;;6.57;;
49296;SDS011;35163;48.878;18.040;2022-07-22T00:13:17;13.90;;;6.20;;
49296;SDS011;35163;48.878;18.040;2022-07-22T00:15:43;10.43;;;6.35;;
49296;SDS011;35163;48.878;18.040;2022-07-22T00:18:10;17.10;;;7.20;;
49296;SDS011;35163;48.878;18.040;2022-07-22T00:20:37;16.67;;;6.70;;
49296;SDS011;35163;48.878;18.040;2022-07-22T00:23:03;19.73;;;7.22;;
49296;SDS011;35163;48.878;18.040;2022-07-22T00:25:30;15.15;;;6.22;;
49296;SDS011;35163;48.878;18.040;2022-07-22T00:27:56;12.43;;;6.07;;
49296;SDS011;35163;48.878;18.040;2022-07-22T00:30:23;16.65;;;6.55;;
49296;SDS011;35163;48.878;18.040;2022-07-22T00:32:50;13.80;;;6.32;;
49296;SDS011;35163;48.878;18.040;2022-07-22T00:35:16;13.98;;;6.10;;
49296;SDS011;35163;48.878;18.040;2022-07-22T00:37:43;21.95;;;6.32;;
49296;SDS011;35163;48.878;18.040;2022-07-22T00:40:10;13.93;;;6.50;;
49296;SDS011;35163;48.878;18.040;2022-07-22T00:42:37;17.35;;;6.25;;
49296;SDS011;35163;48.878;18.040;2022-07-22T00:45:04;14.15;;;6.57;;
49296;SDS011;35163;48.878;18.040;2022-07-22T00:47:33;18.10;;;6.28;;
49296;SDS011;35163;48.878;18.040;2022-07-22T00:50:00;15.80;;;7.18;;
49296;SDS011;35163;48.878;18.040;2022-07-22T00:52:27;12.10;;;6.60;;
49296;SDS011;35163;48.878;18.040;2022-07-22T00:54:54;14.35;;;6.40;;
49296;SDS011;35163;48.878;18.040;2022-07-22T00:57:22;11.18;;;6.40;;
49296;SDS011;35163;48.878;18.040;2022-07-22T00:59:48;13.52;;;6.47;;
49296;SDS011;35163;48.878;18.040;2022-07-22T01:02:15;14.88;;;5.80;;
49296;SDS011;35163;48.878;18.040;2022-07-22T01:04:42;10.88;;;5.97;;
49296;SDS011;35163;48.878;18.040;2022-07-22T01:07:11;12.05;;;6.50;;
49296;SDS011;35163;48.878;18.040;2022-07-22T01:09:41;11.73;;;5.43;;
49296;SDS011;35163;48.878;18.040;2022-07-22T01:12:10;12.77;;;6.38;;
49296;SDS011;35163;48.878;18.040;2022-07-22T01:14:37;12.38;;;6.28;;
49296;SDS011;35163;48.878;18.040;2022-07-22T01:17:04;13.20;;;5.93;;
49296;SDS011;35163;48.878;18.040;2022-07-22T01:19:30;13.25;;;6.13;;
49296;SDS011;35163;48.878;18.040;2022-07-22T01:21:57;13.60;;;6.13;;
49296;SDS011;35163;48.878;18.040;2022-07-22T01:24:24;12.68;;;5.80;;
49296;SDS011;35163;48.878;18.040;2022-07-22T01:26:50;12.93;;;5.78;;
49296;SDS011;35163;48.878;18.040;2022-07-22T01:29:17;11.43;;;5.63;;
49296;SDS011;35163;48.878;18.040;2022-07-22T01:31:43;10.27;;;5.50;;
49296;SDS011;35163;48.878;18.040;2022-07-22T01:34:10;12.35;;;5.78;;
49296;SDS011;35163;48.878;18.040;2022-07-22T01:36:37;9.90;;;6.25;;
49296;SDS011;35163;48.878;18.040;2022-07-22T01:39:04;10.57;;;6.00;;
49296;SDS011;35163;48.878;18.040;2022-07-22T01:41:30;12.40;;;6.38;;
49296;SDS011;35163;48.878;18.040;2022-07-22T01:43:57;10.35;;;5.57;;
49296;SDS011;35163;48.878;18.040;2022-07-22T01:46:24;13.50;;;5.97;;
49296;SDS011;35163;48.878;18.040;2022-07-22T01:48:51;10.55;;;5.47;;
49296;SDS011;35163;48.878;18.040;2022-07-22T01:51:19;10.80;;;6.18;;
49296;SDS011;35163;48.878;18.040;2022-07-22T01:53:46;10.85;;;5.97;;
49296;SDS011;35163;48.878;18.040;2022-07-22T01:56:13;15.07;;;6.10;;
49296;SDS011;35163;48.878;18.040;2022-07-22T01:58:40;9.75;;;4.90;;
49296;SDS011;35163;48.878;18.040;2022-07-22T02:01:07;13.18;;;5.82;;
49296;SDS011;35163;48.878;18.040;2022-07-22T02:03:35;13.85;;;6.25;;
49296;SDS011;35163;48.878;18.040;2022-07-22T02:06:02;11.50;;;5.78;;
49296;SDS011;35163;48.878;18.040;2022-07-22T02:08:29;10.25;;;5.78;;
49296;SDS011;35163;48.878;18.040;2022-07-22T02:10:56;13.85;;;5.70;;
49296;SDS011;35163;48.878;18.040;2022-07-22T02:13:23;11.55;;;6.60;;
49296;SDS011;35163;48.878;18.040;2022-07-22T02:15:49;10.80;;;5.90;;
49296;SDS011;35163;48.878;18.040;2022-07-22T02:18:16;14.90;;;5.47;;
49296;SDS011;35163;48.878;18.040;2022-07-22T02:20:44;16.02;;;6.43;;
49296;SDS011;35163;48.878;18.040;2022-07-22T02:23:12;20.10;;;6.38;;
49296;SDS011;35163;48.878;18.040;2022-07-22T02:25:39;11.82;;;6.28;;
49296;SDS011;35163;48.878;18.040;2022-07-22T02:28:08;20.10;;;6.40;;
49296;SDS011;35163;48.878;18.040;2022-07-22T02:30:35;10.02;;;5.40;;
49296;SDS011;35163;48.878;18.040;2022-07-22T02:33:02;12.88;;;5.40;;
49296;SDS011;35163;48.878;18.040;2022-07-22T02:35:29;10.25;;;5.60;;
49296;SDS011;35163;48.878;18.040;2022-07-22T02:37:56;16.13;;;5.75;;
49296;SDS011;35163;48.878;18.040;2022-07-22T02:40:23;13.57;;;6.35;;
49296;SDS011;35163;48.878;18.040;2022-07-22T02:42:49;13.98;;;6.28;;
49296;SDS011;35163;48.878;18.040;2022-07-22T02:45:16;12.55;;;6.55;;
49296;SDS011;35163;48.878;18.040;2022-07-22T02:47:50;9.77;;;5.75;;
49296;SDS011;35163;48.878;18.040;2022-07-22T02:50:19;10.20;;;5.38;;
49296;SDS011;35163;48.878;18.040;2022-07-22T02:52:46;13.05;;;5.72;;
49296;SDS011;35163;48.878;18.040;2022-07-22T02:55:13;11.48;;;5.88;;
49296;SDS011;35163;48.878;18.040;2022-07-22T02:57:40;10.70;;;5.82;;
49296;SDS011;35163;48.878;18.040;2022-07-22T03:00:08;23.40;;;7.35;;
49296;SDS011;35163;48.878;18.040;2022-07-22T03:02:37;11.98;;;6.18;;
49296;SDS011;35163;48.878;18.040;2022-07-22T03:05:05;16.35;;;6.72;;
49296;SDS011;35163;48.878;18.040;2022-07-22T03:07:32;13.00;;;5.97;;
49296;SDS011;35163;48.878;18.040;2022-07-22T03:09:59;13.82;;;6.50;;
49296;SDS011;35163;48.878;18.040;2022-07-22T03:12:28;12.57;;;5.88;;
49296;SDS011;35163;48.878;18.040;2022-07-22T03:14:55;19.02;;;6.30;;
49296;SDS011;35163;48.878;18.040;2022-07-22T03:17:21;12.23;;;6.35;;
49296;SDS011;35163;48.878;18.040;2022-07-22T03:19:48;12.77;;;6.25;;
49296;SDS011;35163;48.878;18.040;2022-07-22T03:22:14;11.35;;;5.80;;
49296;SDS011;35163;48.878;18.040;2022-07-22T03:24:41;15.38;;;6.53;;
49296;SDS011;35163;48.878;18.040;2022-07-22T03:27:08;12.82;;;6.40;;
49296;SDS011;35163;48.878;18.040;2022-07-22T03:29:34;13.80;;;6.03;;
49296;SDS011;35163;48.878;18.040;2022-07-22T03:32:01;13.63;;;7.00;;
49296;SDS011;35163;48.878;18.040;2022-07-22T03:34:27;13.10;;;6.15;;
49296;SDS011;35163;48.878;18.040;2022-07-22T03:36:54;12.80;;;6.90;;
49296;SDS011;35163;48.878;18.040;2022-07-22T03:39:21;12.57;;;6.95;;
49296;SDS011;35163;48.878;18.040;2022-07-22T03:41:47;10.63;;;6.72;;
49296;SDS011;35163;48.878;18.040;2022-07-22T03:44:14;14.95;;;6.95;;
49296;SDS011;35163;48.878;18.040;2022-07-22T03:46:40;17.33;;;7.22;;
49296;SDS011;35163;48.878;18.040;2022-07-22T03:49:07;13.15;;;6.72;;
49296;SDS011;35163;48.878;18.040;2022-07-22T03:51:34;16.13;;;6.90;;
49296;SDS011;35163;48.878;18.040;2022-07-22T03:54:00;16.13;;;8.00;;
49296;SDS011;35163;48.878;18.040;2022-07-22T03:56:27;18.85;;;7.18;;
49296;SDS011;35163;48.878;18.040;2022-07-22T03:58:54;17.23;;;7.22;;
49296;SDS011;35163;48.878;18.040;2022-07-22T04:01:21;15.48;;;7.22;;
49296;SDS011;35163;48.878;18.040;2022-07-22T04:03:48;15.93;;;6.95;;
49296;SDS011;35163;48.878;18.040;2022-07-22T04:06:15;16.80;;;6.95;;
49296;SDS011;35163;48.878;18.040;2022-07-22T04:08:42;19.33;;;6.65;;
49296;SDS011;35163;48.878;18.040;2022-07-22T04:11:09;16.25;;;7.18;;
49296;SDS011;35163;48.878;18.040;2022-07-22T04:13:36;12.95;;;7.20;;
49296;SDS011;35163;48.878;18.040;2022-07-22T04:16:02;16.35;;;7.35;;
49296;SDS011;35163;48.878;18.040;2022-07-22T04:18:30;14.68;;;7.20;;
49296;SDS011;35163;48.878;18.040;2022-07-22T04:20:58;14.68;;;7.40;;
49296;SDS011;35163;48.878;18.040;2022-07-22T04:23:25;15.57;;;7.15;;
49296;SDS011;35163;48.878;18.040;2022-07-22T04:25:51;14.60;;;7.38;;
49296;SDS011;35163;48.878;18.040;2022-07-22T04:28:18;14.18;;;6.57;;
49296;SDS011;35163;48.878;18.040;2022-07-22T04:30:45;11.52;;;6.97;;
49296;SDS011;35163;48.878;18.040;2022-07-22T04:33:11;12.38;;;6.60;;
49296;SDS011;35163;48.878;18.040;2022-07-22T04:35:38;16.60;;;7.45;;
49296;SDS011;35163;48.878;18.040;2022-07-22T04:38:05;14.20;;;6.70;;
49296;SDS011;35163;48.878;18.040;2022-07-22T04:40:31;18.27;;;7.45;;
49296;SDS011;35163;48.878;18.040;2022-07-22T04:42:58;14.90;;;7.15;;
49296;SDS011;35163;48.878;18.040;2022-07-22T04:45:24;14.15;;;7.03;;
49296;SDS011;35163;48.878;18.040;2022-07-22T04:47:51;13.07;;;6.88;;
49296;SDS011;35163;48.878;18.040;2022-07-22T04:50:18;16.75;;;7.70;;
49296;SDS011;35163;48.878;18.040;2022-07-22T04:52:44;16.98;;;7.07;;
49296;SDS011;35163;48.878;18.040;2022-07-22T04:55:15;16.35;;;6.80;;
49296;SDS011;35163;48.878;18.040;2022-07-22T04:57:42;16.73;;;7.30;;
49296;SDS011;35163;48.878;18.040;2022-07-22T05:00:08;19.83;;;6.88;;
49296;SDS011;35163;48.878;18.040;2022-07-22T05:02:35;14.35;;;7.30;;
49296;SDS011;35163;48.878;18.040;2022-07-22T05:05:02;13.23;;;6.25;;
49296;SDS011;35163;48.878;18.040;2022-07-22T05:07:28;14.50;;;6.25;;
49296;SDS011;35163;48.878;18.040;2022-07-22T05:09:55;13.45;;;6.43;;
49296;SDS011;35163;48.878;18.040;2022-07-22T05:12:22;10.48;;;5.68;;
49296;SDS011;35163;48.878;18.040;2022-07-22T05:14:48;16.60;;;7.03;;
49296;SDS011;35163;48.878;18.040;2022-07-22T05:17:15;15.48;;;6.72;;
49296;SDS011;35163;48.878;18.040;2022-07-22T05:19:42;20.65;;;7.55;;
49296;SDS011;35163;48.878;18.040;2022-07-22T05:22:08;31.98;;;8.43;;
49296;SDS011;35163;48.878;18.040;2022-07-22T05:24:35;18.30;;;8.55;;
49296;SDS011;35163;48.878;18.040;2022-07-22T05:27:02;20.58;;;7.18;;
49296;SDS011;35163;48.878;18.040;2022-07-22T05:29:29;13.48;;;6.57;;
49296;SDS011;35163;48.878;18.040;2022-07-22T05:31:56;17.92;;;7.20;;
49296;SDS011;35163;48.878;18.040;2022-07-22T05:34:23;11.90;;;7.20;;
49296;SDS011;35163;48.878;18.040;2022-07-22T05:36:49;22.83;;;6.78;;
49296;SDS011;35163;48.878;18.040;2022-07-22T05:39:16;15.27;;;6.75;;
49296;SDS011;35163;48.878;18.040;2022-07-22T05:41:43;12.65;;;6.70;;
49296;SDS011;35163;48.878;18.040;2022-07-22T05:44:10;13.88;;;5.97;;
49296;SDS011;35163;48.878;18.040;2022-07-22T05:46:37;17.10;;;6.75;;
49296;SDS011;35163;48.878;18.040;2022-07-22T05:49:04;13.60;;;6.82;;
49296;SDS011;35163;48.878;18.040;2022-07-22T05:51:31;11.57;;;6.45;;
49296;SDS011;35163;48.878;18.040;2022-07-22T05:53:58;12.85;;;6.45;;
49296;SDS011;35163;48.878;18.040;2022-07-22T05:56:24;11.40;;;6.30;;
49296;SDS011;35163;48.878;18.040;2022-07-22T05:58:51;12.82;;;6.32;;
49296;SDS011;35163;48.878;18.040;2022-07-22T06:01:18;11.77;;;5.97;;
49296;SDS011;35163;48.878;18.040;2022-07-22T06:03:44;19.92;;;6.63;;
49296;SDS011;35163;48.878;18.040;2022-07-22T06:06:11;13.43;;;6.78;;
49296;SDS011;35163;48.878;18.040;2022-07-22T06:08:38;18.70;;;6.00;;
49296;SDS011;35163;48.878;18.040;2022-07-22T06:11:05;13.73;;;5.70;;
49296;SDS011;35163;48.878;18.040;2022-07-22T06:13:31;14.40;;;6.90;;
49296;SDS011;35163;48.878;18.040;2022-07-22T06:15:59;21.70;;;6.45;;
49296;SDS011;35163;48.878;18.040;2022-07-22T06:18:26;12.18;;;6.10;;
49296;SDS011;35163;48.878;18.040;2022-07-22T06:20:52;9.75;;;5.57;;
49296;SDS011;35163;48.878;18.040;2022-07-22T06:23:19;12.15;;;7.07;;
49296;SDS011;35163;48.878;18.040;2022-07-22T06:25:46;17.80;;;6.00;;
49296;SDS011;35163;48.878;18.040;2022-07-22T06:28:12;11.43;;;5.72;;
49296;SDS011;35163;48.878;18.040;2022-07-22T06:30:39;14.60;;;5.60;;
49296;SDS011;35163;48.878;18.040;2022-07-22T06:33:06;9.75;;;5.38;;
49296;SDS011;35163;48.878;18.040;2022-07-22T06:35:33;11.07;;;6.25;;
49296;SDS011;35163;48.878;18.040;2022-07-22T06:38:00;11.63;;;6.00;;
49296;SDS011;35163;48.878;18.040;2022-07-22T06:40:31;12.90;;;6.20;;
49296;SDS011;35163;48.878;18.040;2022-07-22T06:42:58;11.75;;;5.85;;
49296;SDS011;35163;48.878;18.040;2022-07-22T06:45:25;10.65;;;6.15;;
49296;SDS011;35163;48.878;18.040;2022-07-22T06:47:52;14.70;;;6.07;;
49296;SDS011;35163;48.878;18.040;2022-07-22T06:50:19;14.73;;;5.70;;
49296;SDS011;35163;48.878;18.040;2022-07-22T06:52:45;13.13;;;6.00;;
49296;SDS011;35163;48.878;18.040;2022-07-22T06:55:12;11.75;;;5.90;;
49296;SDS011;35163;48.878;18.040;2022-07-22T06:57:39;23.45;;;6.05;;
49296;SDS011;35163;48.878;18.040;2022-07-22T07:00:06;12.70;;;7.25;;
49296;SDS011;35163;48.878;18.040;2022-07-22T07:02:34;14.20;;;6.65;;
49296;SDS011;35163;48.878;18.040;2022-07-22T07:05:01;16.83;;;5.95;;
49296;SDS011;35163;48.878;18.040;2022-07-22T07:07:28;12.75;;;5.90;;
49296;SDS011;35163;48.878;18.040;2022-07-22T07:10:01;14.00;;;6.32;;
49296;SDS011;35163;48.878;18.040;2022-07-22T07:12:34;16.35;;;5.97;;
49296;SDS011;35163;48.878;18.040;2022-07-22T07:15:03;11.80;;;6.30;;
49296;SDS011;35163;48.878;18.040;2022-07-22T07:17:50;16.40;;;6.45;;
49296;SDS011;35163;48.878;18.040;2022-07-22T07:20:21;18.05;;;6.03;;
49296;SDS011;35163;48.878;18.040;2022-07-22T07:22:47;14.70;;;5.78;;
49296;SDS011;35163;48.878;18.040;2022-07-22T07:25:14;9.60;;;5.50;;
49296;SDS011;35163;48.878;18.040;2022-07-22T07:27:49;12.73;;;5.55;;
49296;SDS011;35163;48.878;18.040;2022-07-22T07:30:19;15.13;;;5.82;;
49296;SDS011;35163;48.878;18.040;2022-07-22T07:32:46;11.55;;;6.25;;
49296;SDS011;35163;48.878;18.040;2022-07-22T07:35:12;12.20;;;6.13;;
49296;SDS011;35163;48.878;18.040;2022-07-22T07:37:39;15.95;;;6.18;;
49296;SDS011;35163;48.878;18.040;2022-07-22T07:40:06;11.60;;;5.05;;
49296;SDS011;35163;48.878;18.040;2022-07-22T07:42:33;12.40;;;5.90;;
49296;SDS011;35163;48.878;18.040;2022-07-22T07:45:00;14.95;;;6.18;;
49296;SDS011;35163;48.878;18.040;2022-07-22T07:47:27;12.85;;;5.68;;
49296;SDS011;35163;48.878;18.040;2022-07-22T07:49:53;13.70;;;6.10;;
49296;SDS011;35163;48.878;18.040;2022-07-22T07:52:20;11.60;;;6.10;;
49296;SDS011;35163;48.878;18.040;2022-07-22T07:54:47;18.83;;;5.60;;
49296;SDS011;35163;48.878;18.040;2022-07-22T07:57:35;16.27;;;6.40;;
49296;SDS011;35163;48.878;18.040;2022-07-22T08:00:03;21.15;;;7.18;;
49296;SDS011;35163;48.878;18.040;2022-07-22T08:02:38;13.38;;;6.53;;
49296;SDS011;35163;48.878;18.040;2022-07-22T08:05:07;17.48;;;6.22;;
49296;SDS011;35163;48.878;18.040;2022-07-22T08:07:35;14.73;;;6.32;;
49296;SDS011;35163;48.878;18.040;2022-07-22T08:10:03;21.92;;;6.38;;
49296;SDS011;35163;48.878;18.040;2022-07-22T08:12:51;15.20;;;6.20;;
49296;SDS011;35163;48.878;18.040;2022-07-22T08:15:17;9.15;;;5.43;;
49296;SDS011;35163;48.878;18.040;2022-07-22T08:17:44;18.77;;;6.18;;
49296;SDS011;35163;48.878;18.040;2022-07-22T08:20:11;14.32;;;6.07;;
49296;SDS011;35163;48.878;18.040;2022-07-22T08:22:46;18.02;;;6.15;;
49296;SDS011;35163;48.878;18.040;2022-07-22T08:25:13;13.85;;;6.45;;
49296;SDS011;35163;48.878;18.040;2022-07-22T08:27:40;14.45;;;6.30;;
49296;SDS011;35163;48.878;18.040;2022-07-22T08:30:07;14.13;;;5.82;;
49296;SDS011;35163;48.878;18.040;2022-07-22T08:32:34;13.32;;;6.60;;
49296;SDS011;35163;48.878;18.040;2022-07-22T08:35:01;17.70;;;7.25;;
49296;SDS011;35163;48.878;18.040;2022-07-22T08:37:29;16.17;;;6.18;;
49296;SDS011;35163;48.878;18.040;2022-07-22T08:39:56;21.17;;;6.20;;
49296;SDS011;35163;48.878;18.040;2022-07-22T08:42:25;11.65;;;5.88;;
49296;SDS011;35163;48.878;18.040;2022-07-22T08:44:52;14.52;;;6.00;;
49296;SDS011;35163;48.878;18.040;2022-07-22T08:47:23;13.27;;;6.35;;
49296;SDS011;35163;48.878;18.040;2022-07-22T08:50:06;13.47;;;6.77;;
49296;SDS011;35163;48.878;18.040;2022-07-22T08:52:34;16.70;;;6.68;;
49296;SDS011;35163;48.878;18.040;2022-07-22T08:55:04;12.07;;;6.18;;
49296;SDS011;35163;48.878;18.040;2022-07-22T08:57:32;14.48;;;6.63;;
49296;SDS011;35163;48.878;18.040;2022-07-22T09:00:00;15.80;;;6.60;;
49296;SDS011;35163;48.878;18.040;2022-07-22T09:02:27;9.27;;;5.60;;
49296;SDS011;35163;48.878;18.040;2022-07-22T09:05:04;13.20;;;6.13;;
49296;SDS011;35163;48.878;18.040;2022-07-22T09:07:57;11.10;;;6.75;;
49296;SDS011;35163;48.878;18.040;2022-07-22T09:10:30;10.73;;;6.22;;
49296;SDS011;35163;48.878;18.040;2022-07-22T09:13:00;17.77;;;5.78;;
49296;SDS011;35163;48.878;18.040;2022-07-22T09:15:31;16.77;;;6.20;;
49296;SDS011;35163;48.878;18.040;2022-07-22T09:18:00;16.98;;;6.15;;
49296;SDS011;35163;48.878;18.040;2022-07-22T09:20:31;10.68;;;6.05;;
49296;SDS011;35163;48.878;18.040;2022-07-22T09:22:59;11.63;;;6.45;;
49296;SDS011;35163;48.878;18.040;2022-07-22T09:25:33;13.23;;;5.80;;
49296;SDS011;35163;48.878;18.040;2022-07-22T09:30:39;12.18;;;5.38;;
49296;SDS011;35163;48.878;18.040;2022-07-22T09:33:12;10.23;;;5.50;;
49296;SDS011;35163;48.878;18.040;2022-07-22T09:35:40;10.98;;;5.68;;
49296;SDS011;35163;48.878;18.040;2022-07-22T09:38:15;12.38;;;5.40;;
49296;SDS011;35163;48.878;18.040;2022-07-22T09:40:46;12.38;;;5.68;;
49296;SDS011;35163;48.878;18.040;2022-07-22T09:43:15;19.27;;;6.68;;
49296;SDS011;35163;48.878;18.040;2022-07-22T09:46:01;11.00;;;5.80;;
49296;SDS011;35163;48.878;18.040;2022-07-22T09:48:30;9.15;;;4.95;;
49296;SDS011;35163;48.878;18.040;2022-07-22T09:50:57;11.65;;;5.13;;
49296;SDS011;35163;48.878;18.040;2022-07-22T09:53:25;8.32;;;4.35;;
49296;SDS011;35163;48.878;18.040;2022-07-22T09:55:55;10.48;;;4.70;;
49296;SDS011;35163;48.878;18.040;2022-07-22T09:58:24;8.07;;;4.43;;
49296;SDS011;35163;48.878;18.040;2022-07-22T10:00:53;7.47;;;4.22;;
49296;SDS011;35163;48.878;18.040;2022-07-22T10:03:25;10.43;;;3.60;;
49296;SDS011;35163;48.878;18.040;2022-07-22T10:05:54;6.65;;;3.47;;
49296;SDS011;35163;48.878;18.040;2022-07-22T10:08:23;6.53;;;3.88;;
49296;SDS011;35163;48.878;18.040;2022-07-22T10:10:53;9.70;;;3.60;;
49296;SDS011;35163;48.878;18.040;2022-07-22T10:13:25;13.50;;;3.97;;
49296;SDS011;35163;48.878;18.040;2022-07-22T10:15:52;7.22;;;3.75;;
49296;SDS011;35163;48.878;18.040;2022-07-22T10:18:21;12.73;;;4.15;;
49296;SDS011;35163;48.878;18.040;2022-07-22T10:20:52;12.30;;;4.00;;
49296;SDS011;35163;48.878;18.040;2022-07-22T10:23:27;12.07;;;4.20;;
49296;SDS011;35163;48.878;18.040;2022-07-22T10:25:55;10.20;;;3.80;;
49296;SDS011;35163;48.878;18.040;2022-07-22T10:28:26;9.48;;;3.80;;
49296;SDS011;35163;48.878;18.040;2022-07-22T10:33:43;7.68;;;4.15;;
49296;SDS011;35163;48.878;18.040;2022-07-22T10:36:11;10.32;;;5.13;;
49296;SDS011;35163;48.878;18.040;2022-07-22T10:38:38;9.68;;;4.05;;
49296;SDS011;35163;48.878;18.040;2022-07-22T10:41:41;9.50;;;4.53;;
49296;SDS011;35163;48.878;18.040;2022-07-22T10:44:46;8.20;;;4.45;;
49296;SDS011;35163;48.878;18.040;2022-07-22T10:53:04;8.75;;;4.00;;
49296;SDS011;35163;48.878;18.040;2022-07-22T10:55:34;6.55;;;3.70;;
49296;SDS011;35163;48.878;18.040;2022-07-22T11:01:00;8.63;;;4.13;;
49296;SDS011;35163;48.878;18.040;2022-07-22T11:03:31;9.23;;;4.43;;
49296;SDS011;35163;48.878;18.040;2022-07-22T11:09:04;8.50;;;4.55;;
49296;SDS011;35163;48.878;18.040;2022-07-22T11:11:33;8.38;;;3.88;;
49296;SDS011;35163;48.878;18.040;2022-07-22T11:14:14;18.15;;;3.97;;
49296;SDS011;35163;48.878;18.040;2022-07-22T11:16:54;10.30;;;4.93;;
49296;SDS011;35163;48.878;18.040;2022-07-22T11:19:28;12.77;;;4.75;;
49296;SDS011;35163;48.878;18.040;2022-07-22T11:21:58;11.13;;;4.40;;
49296;SDS011;35163;48.878;18.040;2022-07-22T11:24:28;8.10;;;4.80;;
49296;SDS011;35163;48.878;18.040;2022-07-22T11:26:56;8.50;;;4.88;;
49296;SDS011;35163;48.878;18.040;2022-07-22T11:29:32;9.80;;;4.75;;
49296;SDS011;35163;48.878;18.040;2022-07-22T11:32:06;9.30;;;4.95;;
49296;SDS011;35163;48.878;18.040;2022-07-22T11:34:36;10.45;;;4.78;;
49296;SDS011;35163;48.878;18.040;2022-07-22T11:37:04;10.38;;;4.72;;
49296;SDS011;35163;48.878;18.040;2022-07-22T11:39:31;15.32;;;4.90;;
49296;SDS011;35163;48.878;18.040;2022-07-22T11:41:58;8.90;;;4.70;;
49296;SDS011;35163;48.878;18.040;2022-07-22T11:44:29;13.73;;;4.63;;
49296;SDS011;35163;48.878;18.040;2022-07-22T11:46:57;12.50;;;4.60;;
49296;SDS011;35163;48.878;18.040;2022-07-22T11:49:28;10.70;;;5.10;;
49296;SDS011;35163;48.878;18.040;2022-07-22T11:52:00;10.00;;;4.90;;
49296;SDS011;35163;48.878;18.040;2022-07-22T11:54:33;8.75;;;4.57;;
49296;SDS011;35163;48.878;18.040;2022-07-22T11:57:01;11.10;;;4.65;;
49296;SDS011;35163;48.878;18.040;2022-07-22T11:59:28;10.20;;;5.53;;
49296;SDS011;35163;48.878;18.040;2022-07-22T12:01:55;9.18;;;4.80;;
49296;SDS011;35163;48.878;18.040;2022-07-22T12:04:23;10.75;;;5.30;;
49296;SDS011;35163;48.878;18.040;2022-07-22T12:06:51;11.75;;;4.78;;
49296;SDS011;35163;48.878;18.040;2022-07-22T12:09:24;10.82;;;5.10;;
49296;SDS011;35163;48.878;18.040;2022-07-22T12:11:53;10.95;;;5.05;;
49296;SDS011;35163;48.878;18.040;2022-07-22T12:14:25;9.85;;;4.97;;
49296;SDS011;35163;48.878;18.040;2022-07-22T12:19:24;8.85;;;4.93;;
49296;SDS011;35163;48.878;18.040;2022-07-22T12:21:56;12.52;;;4.65;;
49296;SDS011;35163;48.878;18.040;2022-07-22T12:24:27;13.40;;;5.15;;
49296;SDS011;35163;48.878;18.040;2022-07-22T12:26:56;7.00;;;4.20;;
49296;SDS011;35163;48.878;18.040;2022-07-22T12:29:27;14.60;;;4.70;;
49296;SDS011;35163;48.878;18.040;2022-07-22T12:32:14;11.98;;;4.70;;
49296;SDS011;35163;48.878;18.040;2022-07-22T12:37:30;11.50;;;4.82;;
49296;SDS011;35163;48.878;18.040;2022-07-22T12:40:02;18.05;;;4.43;;
49296;SDS011;35163;48.878;18.040;2022-07-22T12:43:14;7.43;;;4.20;;
49296;SDS011;35163;48.878;18.040;2022-07-22T12:45:40;11.57;;;4.10;;
49296;SDS011;35163;48.878;18.040;2022-07-22T12:48:09;10.73;;;4.55;;
49296;SDS011;35163;48.878;18.040;2022-07-22T12:50:53;9.00;;;4.40;;
49296;SDS011;35163;48.878;18.040;2022-07-22T12:53:25;11.27;;;4.78;;
49296;SDS011;35163;48.878;18.040;2022-07-22T12:55:56;12.85;;;4.93;;
49296;SDS011;35163;48.878;18.040;2022-07-22T12:58:25;11.40;;;4.82;;
49296;SDS011;35163;48.878;18.040;2022-07-22T13:00:54;8.65;;;4.50;;
49296;SDS011;35163;48.878;18.040;2022-07-22T13:03:26;11.13;;;4.47;;
49296;SDS011;35163;48.878;18.040;2022-07-22T13:05:55;7.65;;;3.78;;
49296;SDS011;35163;48.878;18.040;2022-07-22T13:08:23;8.15;;;4.43;;
49296;SDS011;35163;48.878;18.040;2022-07-22T13:10:51;6.38;;;3.90;;
49296;SDS011;35163;48.878;18.040;2022-07-22T13:13:19;8.38;;;3.85;;
49296;SDS011;35163;48.878;18.040;2022-07-22T13:15:47;7.47;;;3.92;;
49296;SDS011;35163;48.878;18.040;2022-07-22T13:18:15;9.15;;;3.80;;
49296;SDS011;35163;48.878;18.040;2022-07-22T13:20:43;9.30;;;4.35;;
49296;SDS011;35163;48.878;18.040;2022-07-22T13:23:09;11.55;;;4.00;;
49296;SDS011;35163;48.878;18.040;2022-07-22T13:25:36;8.75;;;4.15;;
49296;SDS011;35163;48.878;18.040;2022-07-22T13:28:03;8.07;;;3.90;;
49296;SDS011;35163;48.878;18.040;2022-07-22T13:30:29;8.80;;;3.90;;
49296;SDS011;35163;48.878;18.040;2022-07-22T13:32:58;11.02;;;3.90;;
49296;SDS011;35163;48.878;18.040;2022-07-22T13:35:25;9.15;;;4.38;;
49296;SDS011;35163;48.878;18.040;2022-07-22T13:37:51;10.23;;;4.70;;
49296;SDS011;35163;48.878;18.040;2022-07-22T13:40:18;9.75;;;4.07;;
49296;SDS011;35163;48.878;18.040;2022-07-22T13:42:45;11.98;;;4.10;;
49296;SDS011;35163;48.878;18.040;2022-07-22T13:45:11;10.57;;;4.07;;
49296;SDS011;35163;48.878;18.040;2022-07-22T13:47:39;10.77;;;4.00;;
49296;SDS011;35163;48.878;18.040;2022-07-22T13:50:06;6.63;;;3.97;;
49296;SDS011;35163;48.878;18.040;2022-07-22T13:52:34;12.93;;;4.40;;
49296;SDS011;35163;48.878;18.040;2022-07-22T13:55:00;6.63;;;3.88;;
49296;SDS011;35163;48.878;18.040;2022-07-22T13:57:27;8.73;;;4.30;;
49296;SDS011;35163;48.878;18.040;2022-07-22T13:59:54;11.80;;;3.92;;
49296;SDS011;35163;48.878;18.040;2022-07-22T14:02:22;12.80;;;4.32;;
49296;SDS011;35163;48.878;18.040;2022-07-22T14:04:50;7.05;;;4.03;;
49296;SDS011;35163;48.878;18.040;2022-07-22T14:07:16;7.65;;;4.32;;
49296;SDS011;35163;48.878;18.040;2022-07-22T14:09:43;7.82;;;4.15;;
49296;SDS011;35163;48.878;18.040;2022-07-22T14:12:10;8.40;;;4.07;;
49296;SDS011;35163;48.878;18.040;2022-07-22T14:14:36;7.78;;;4.05;;
49296;SDS011;35163;48.878;18.040;2022-07-22T14:17:03;6.45;;;3.88;;
49296;SDS011;35163;48.878;18.040;2022-07-22T14:19:30;14.23;;;4.38;;
49296;SDS011;35163;48.878;18.040;2022-07-22T14:21:57;7.95;;;3.88;;
49296;SDS011;35163;48.878;18.040;2022-07-22T14:24:23;12.45;;;4.28;;
49296;SDS011;35163;48.878;18.040;2022-07-22T14:26:51;7.75;;;4.22;;
49296;SDS011;35163;48.878;18.040;2022-07-22T14:29:18;10.00;;;4.10;;
49296;SDS011;35163;48.878;18.040;2022-07-22T14:31:47;8.00;;;4.35;;
49296;SDS011;35163;48.878;18.040;2022-07-22T14:34:14;11.32;;;4.50;;
49296;SDS011;35163;48.878;18.040;2022-07-22T14:36:44;8.15;;;4.15;;
49296;SDS011;35163;48.878;18.040;2022-07-22T14:39:11;10.30;;;4.35;;
49296;SDS011;35163;48.878;18.040;2022-07-22T14:41:37;7.97;;;3.63;;
49296;SDS011;35163;48.878;18.040;2022-07-22T14:44:04;12.02;;;4.47;;
49296;SDS011;35163;48.878;18.040;2022-07-22T14:46:32;14.93;;;3.85;;
49296;SDS011;35163;48.878;18.040;2022-07-22T14:48:59;7.57;;;3.80;;
49296;SDS011;35163;48.878;18.040;2022-07-22T14:51:25;10.52;;;3.60;;
49296;SDS011;35163;48.878;18.040;2022-07-22T14:53:52;9.88;;;3.83;;